Terminal Aerodrome Forecast
Issued by NWS

Home | Current Version | Previous Version | Graphics & Text | Print | Product List | Glossary On
Versions: 1 2 3 4 5 6 7 8 9 10 11 12 13 14 15 16 17 18 19 20
000
FTUS43 KBIS 261130
TAFDIK
TAF
KDIK 261130Z 2612/2712 29020G39KT P6SM BKN035
     FM261700 30019G27KT P6SM SCT070 BKN140
     FM270200 29009KT P6SM FEW070 SCT200=

USA.gov is the U.S. government's official web portal to all federal, state and local government web resources and services.